createdAt,value
2022-08-10T00:03:00.428Z,15.03
2022-08-10T00:08:03.665Z,14.92
2022-08-10T00:13:06.412Z,14.87
2022-08-10T00:18:09.122Z,14.86
2022-08-10T00:23:14.479Z,14.84
2022-08-10T00:28:17.354Z,14.77
2022-08-10T00:33:21.059Z,14.70
2022-08-10T00:38:24.265Z,14.67
2022-08-10T00:43:27.008Z,14.64
2022-08-10T00:48:30.163Z,14.57
2022-08-10T00:53:33.004Z,14.56
2022-08-10T00:58:37.318Z,14.66
2022-08-10T01:04:57.550Z,14.67
2022-08-10T01:09:22.474Z,14.64
2022-08-10T01:15:01.737Z,14.62
2022-08-10T01:20:40.025Z,14.63
2022-08-10T01:26:31.477Z,14.64
2022-08-10T01:31:50.254Z,14.67
2022-08-10T01:36:58.803Z,14.70
2022-08-10T01:42:01.994Z,14.72
2022-08-10T01:47:29.117Z,14.73
2022-08-10T01:52:31.960Z,14.69
2022-08-10T01:57:34.804Z,14.65
2022-08-10T02:02:37.776Z,14.61
2022-08-10T02:07:40.562Z,14.61
2022-08-10T02:12:43.445Z,14.58
2022-08-10T02:18:00.282Z,14.55
2022-08-10T02:23:17.984Z,14.51
2022-08-10T02:28:30.208Z,14.39
2022-08-10T02:33:38.105Z,14.32
2022-08-10T02:38:58.380Z,14.24
2022-08-10T02:45:24.708Z,14.17
2022-08-10T02:49:42.405Z,14.14
2022-08-10T02:54:51.754Z,14.15
2022-08-10T03:00:00.317Z,14.12
2022-08-10T03:05:11.336Z,14.03
2022-08-10T03:10:20.669Z,13.99
2022-08-10T03:15:23.666Z,13.94
2022-08-10T03:20:38.341Z,13.93
2022-08-10T03:25:53.064Z,13.93
2022-08-10T03:30:58.633Z,13.87
2022-08-10T03:36:40.133Z,13.80
2022-08-10T03:41:35.561Z,13.77
2022-08-10T03:46:41.909Z,13.78
2022-08-10T03:51:45.499Z,13.82
2022-08-10T03:56:48.323Z,13.83
2022-08-10T04:02:52.644Z,13.80
2022-08-10T04:07:14.903Z,13.88
2022-08-10T04:12:17.721Z,13.93
2022-08-10T04:18:04.013Z,14.04
2022-08-10T04:22:49.142Z,14.06
2022-08-10T04:27:52.656Z,14.11
2022-08-10T04:32:55.823Z,14.21
2022-08-10T04:37:59.259Z,14.32
2022-08-10T04:43:11.280Z,14.39
2022-08-10T04:48:39.992Z,14.49
2022-08-10T04:54:03.792Z,14.61
2022-08-10T04:59:10.616Z,14.75
2022-08-10T05:04:36.308Z,14.84
2022-08-10T05:10:04.854Z,14.96
2022-08-10T05:15:11.969Z,15.16
2022-08-10T05:20:14.702Z,15.39
2022-08-10T05:25:19.298Z,15.45
2022-08-10T05:30:22.920Z,15.57
2022-08-10T05:35:27.067Z,15.71
2022-08-10T05:40:30.510Z,15.84
2022-08-10T05:45:34.066Z,16.06
2022-08-10T05:50:56.898Z,16.28
2022-08-10T05:56:00.553Z,16.47
2022-08-10T06:01:06.507Z,16.70
2022-08-10T06:06:09.364Z,16.88
2022-08-10T06:12:26.317Z,17.05
2022-08-10T06:16:34.985Z,17.22
2022-08-10T06:21:39.221Z,17.38
2022-08-10T06:26:59.563Z,17.56
2022-08-10T06:32:04.196Z,17.74
2022-08-10T06:37:08.995Z,17.92
2022-08-10T06:42:17.944Z,18.12
2022-08-10T06:47:25.947Z,18.25
2022-08-10T06:52:31.042Z,18.35
2022-08-10T06:57:33.912Z,18.45
2022-08-10T07:02:44.961Z,18.51
2022-08-10T07:07:48.094Z,18.49
2022-08-10T07:12:55.928Z,18.46
2022-08-10T07:17:58.681Z,18.53
2022-08-10T07:23:56.996Z,18.56
2022-08-10T07:28:25.549Z,18.77
2022-08-10T07:33:28.855Z,18.97
2022-08-10T07:38:33.845Z,19.14
2022-08-10T07:43:39.304Z,19.40
2022-08-10T07:48:48.959Z,19.74
2022-08-10T07:53:53.900Z,20.13
2022-08-10T07:59:01.990Z,20.44
2022-08-10T08:04:11.723Z,20.72
2022-08-10T08:09:15.022Z,20.90
2022-08-10T08:14:17.932Z,21.13
2022-08-10T08:19:28.156Z,21.21
2022-08-10T08:24:38.956Z,20.85
2022-08-10T08:29:43.545Z,20.64
2022-08-10T08:34:46.504Z,20.61
2022-08-10T08:39:49.413Z,20.56
2022-08-10T08:45:16.139Z,20.58
2022-08-10T08:50:57.286Z,20.85
2022-08-10T08:56:21.381Z,21.05
2022-08-10T09:01:58.424Z,21.20
2022-08-10T09:07:38.011Z,21.47
2022-08-10T09:13:27.139Z,21.81
2022-08-10T09:19:10.827Z,22.02
2022-08-10T09:24:27.403Z,22.40
2022-08-10T09:29:33.489Z,22.78
2022-08-10T09:36:24.404Z,22.90
2022-08-10T09:40:59.482Z,22.76
2022-08-10T09:46:27.782Z,22.71
2022-08-10T09:51:48.836Z,23.09
2022-08-10T09:57:44.269Z,24.00
2022-08-10T10:02:54.700Z,25.27
2022-08-10T10:08:15.974Z,26.50
2022-08-10T10:14:01.906Z,26.43
2022-08-10T10:19:40.019Z,26.72
2022-08-10T10:24:53.057Z,25.51
2022-08-10T10:30:12.229Z,25.40
2022-08-10T10:35:50.224Z,25.80
2022-08-10T10:41:03.901Z,26.40
2022-08-10T10:46:22.345Z,27.80
2022-08-10T10:51:34.279Z,28.59
2022-08-10T10:56:59.142Z,29.39
2022-08-10T11:02:32.671Z,30.89
2022-08-10T11:08:01.696Z,31.95
2022-08-10T11:14:23.228Z,32.76
2022-08-10T11:18:52.908Z,32.90
2022-08-10T11:24:42.738Z,33.14
2022-08-10T11:30:04.536Z,34.05
2022-08-10T11:35:53.696Z,34.03
2022-08-10T11:42:07.132Z,33.63
2022-08-10T11:46:54.203Z,33.61
2022-08-10T11:52:08.967Z,35.59
2022-08-10T11:57:12.384Z,34.69
2022-08-10T12:02:16.602Z,31.99
2022-08-10T12:09:23.967Z,30.28
2022-08-10T12:13:13.309Z,28.92
2022-08-10T12:18:22.345Z,27.82
2022-08-10T12:23:39.477Z,27.37
2022-08-10T12:29:24.839Z,27.75
2022-08-10T12:34:46.385Z,28.71
2022-08-10T12:40:37.005Z,31.97
2022-08-10T12:46:06.765Z,33.40
2022-08-10T12:51:21.685Z,35.47
2022-08-10T12:56:27.056Z,33.52
2022-08-10T13:02:06.631Z,30.68
2022-08-10T13:06:54.834Z,28.91
2022-08-10T13:12:35.786Z,27.92
2022-08-10T13:17:38.928Z,27.02
2022-08-10T13:22:42.809Z,27.90
2022-08-10T13:28:00.840Z,31.90
2022-08-10T13:33:07.594Z,33.87
2022-08-10T13:38:10.911Z,35.96
2022-08-10T13:43:15.105Z,38.53
2022-08-10T13:48:20.665Z,40.47
2022-08-10T13:53:23.493Z,39.64
2022-08-10T13:58:32.758Z,37.03
2022-08-10T14:03:37.849Z,37.85
2022-08-10T14:08:46.464Z,36.87
2022-08-10T14:14:09.438Z,36.78
2022-08-10T14:19:19.345Z,39.13
2022-08-10T14:24:28.298Z,40.13
2022-08-10T14:29:31.590Z,38.24
2022-08-10T14:36:15.132Z,37.29
2022-08-10T14:40:13.479Z,35.81
2022-08-10T14:45:24.561Z,33.95
2022-08-10T14:50:32.022Z,32.18
2022-08-10T14:55:58.997Z,30.78
2022-08-10T15:00:59.901Z,29.19
2022-08-10T15:06:17.131Z,28.19
2022-08-10T15:12:15.347Z,27.63
2022-08-10T15:16:44.042Z,26.91
2022-08-10T15:21:46.819Z,26.51
2022-08-10T15:27:08.502Z,26.64
2022-08-10T15:32:44.071Z,26.43
2022-08-10T15:37:46.803Z,26.04
2022-08-10T15:42:59.042Z,25.81
2022-08-10T15:48:03.438Z,25.65
2022-08-10T15:53:49.511Z,25.61
2022-08-10T15:58:58.672Z,25.44
2022-08-10T16:04:11.103Z,25.47
2022-08-10T16:10:22.008Z,25.26
2022-08-10T16:14:44.889Z,25.01
2022-08-10T16:19:51.280Z,24.74
2022-08-10T16:24:54.162Z,24.40
2022-08-10T16:30:03.726Z,24.16
2022-08-10T16:35:09.367Z,23.90
2022-08-10T16:40:12.622Z,23.61
2022-08-10T16:45:38.762Z,23.32
2022-08-10T16:50:54.222Z,23.11
2022-08-10T16:56:00.114Z,22.97
2022-08-10T17:01:08.616Z,22.87
2022-08-10T17:06:16.049Z,22.74
2022-08-10T17:11:22.201Z,22.62
2022-08-10T17:16:27.698Z,22.47
2022-08-10T17:21:35.541Z,22.37
2022-08-10T17:26:38.453Z,22.25
2022-08-10T17:31:55.039Z,22.13
2022-08-10T17:37:00.455Z,21.99
2022-08-10T17:42:03.445Z,21.88
2022-08-10T17:47:10.924Z,21.77
2022-08-10T17:52:21.120Z,21.64
2022-08-10T17:57:24.109Z,21.51
2022-08-10T18:02:27.465Z,21.41
2022-08-10T18:07:38.435Z,21.28
2022-08-10T18:12:54.993Z,21.15
2022-08-10T18:18:00.556Z,21.00
2022-08-10T18:23:04.790Z,20.85
2022-08-10T18:28:17.466Z,20.69
2022-08-10T18:33:27.181Z,20.53
2022-08-10T18:38:30.780Z,20.36
2022-08-10T18:44:10.014Z,20.24
2022-08-10T18:49:27.643Z,20.13
2022-08-10T18:54:44.148Z,20.02
2022-08-10T19:00:13.264Z,19.91
2022-08-10T19:05:40.370Z,19.75
2022-08-10T19:11:00.014Z,19.62
2022-08-10T19:16:21.005Z,19.50
2022-08-10T19:21:31.090Z,19.40
2022-08-10T19:26:46.004Z,19.29
2022-08-10T19:32:13.978Z,19.19
2022-08-10T19:38:00.718Z,19.05
2022-08-10T19:44:00.264Z,18.87
2022-08-10T19:49:29.848Z,18.69
2022-08-10T19:54:42.314Z,18.53
2022-08-10T20:00:15.740Z,18.36
2022-08-10T20:05:34.014Z,18.16
2022-08-10T20:11:03.533Z,17.98
2022-08-10T20:16:13.393Z,17.85
2022-08-10T20:21:47.410Z,17.72
2022-08-10T20:27:08.898Z,17.65
2022-08-10T20:32:34.643Z,17.59
2022-08-10T20:38:03.466Z,17.54
2022-08-10T20:43:26.553Z,17.50
2022-08-10T20:48:38.361Z,17.45
2022-08-10T20:53:46.537Z,17.36
2022-08-10T20:59:12.272Z,17.25
2022-08-10T21:04:47.607Z,17.12
2022-08-10T21:10:10.765Z,17.05
2022-08-10T21:15:50.485Z,16.95
2022-08-10T21:21:16.399Z,16.81
2022-08-10T21:26:29.467Z,16.69
2022-08-10T21:31:55.187Z,16.61
2022-08-10T21:37:14.537Z,16.49
2022-08-10T21:43:08.668Z,16.36
2022-08-10T21:48:42.619Z,16.29
2022-08-10T21:54:22.011Z,16.18
2022-08-10T22:00:06.354Z,16.01
2022-08-10T22:05:38.780Z,15.92
2022-08-10T22:11:10.760Z,15.91
2022-08-10T22:16:57.402Z,15.83
2022-08-10T22:22:34.218Z,15.79
2022-08-10T22:27:56.900Z,15.71
2022-08-10T22:33:41.442Z,15.67
2022-08-10T22:40:11.780Z,15.65
2022-08-10T22:45:29.342Z,15.53
2022-08-10T22:50:32.137Z,15.54
2022-08-10T22:55:56.835Z,15.50
2022-08-10T23:02:07.450Z,15.45
2022-08-10T23:07:17.565Z,15.42
2022-08-10T23:13:00.548Z,15.33
2022-08-10T23:18:22.728Z,15.20
2022-08-10T23:23:25.649Z,15.13
2022-08-10T23:28:58.105Z,15.08
2022-08-10T23:33:56.639Z,15.00
2022-08-10T23:39:26.416Z,14.98
2022-08-10T23:44:26.899Z,14.95
2022-08-10T23:49:35.304Z,14.91
2022-08-10T23:54:50.324Z,14.79
